sensor_id;sensor_type;location;lat;lon;timestamp;temperature;humidity
17599;DHT22;8918;52.092;5.232;2023-12-14T00:00:28;6.10;99.90
17599;DHT22;8918;52.092;5.232;2023-12-14T00:02:54;6.10;99.90
17599;DHT22;8918;52.092;5.232;2023-12-14T00:05:19;6.10;99.90
17599;DHT22;8918;52.092;5.232;2023-12-14T00:07:45;6.10;99.90
17599;DHT22;8918;52.092;5.232;2023-12-14T00:10:11;6.00;99.90
17599;DHT22;8918;52.092;5.232;2023-12-14T00:12:38;6.00;99.90
17599;DHT22;8918;52.092;5.232;2023-12-14T00:15:04;6.00;99.90
17599;DHT22;8918;52.092;5.232;2023-12-14T00:17:30;6.00;99.90
17599;DHT22;8918;52.092;5.232;2023-12-14T00:19:55;6.00;99.90
17599;DHT22;8918;52.092;5.232;2023-12-14T00:22:21;6.00;99.90
17599;DHT22;8918;52.092;5.232;2023-12-14T00:24:47;5.90;99.90
17599;DHT22;8918;52.092;5.232;2023-12-14T00:27:12;5.90;99.90
17599;DHT22;8918;52.092;5.232;2023-12-14T00:29:38;5.90;99.90
17599;DHT22;8918;52.092;5.232;2023-12-14T00:32:04;5.90;99.90
17599;DHT22;8918;52.092;5.232;2023-12-14T00:34:29;6.00;99.90
17599;DHT22;8918;52.092;5.232;2023-12-14T00:36:55;6.00;99.90
17599;DHT22;8918;52.092;5.232;2023-12-14T00:39:21;5.90;99.90
17599;DHT22;8918;52.092;5.232;2023-12-14T00:41:46;6.00;99.90
17599;DHT22;8918;52.092;5.232;2023-12-14T00:44:12;6.00;99.90
17599;DHT22;8918;52.092;5.232;2023-12-14T00:46:38;6.00;99.90
17599;DHT22;8918;52.092;5.232;2023-12-14T00:49:03;6.00;99.90
17599;DHT22;8918;52.092;5.232;2023-12-14T00:51:29;6.00;99.90
17599;DHT22;8918;52.092;5.232;2023-12-14T00:53:54;6.00;99.90
17599;DHT22;8918;52.092;5.232;2023-12-14T00:56:20;6.00;99.90
17599;DHT22;8918;52.092;5.232;2023-12-14T00:58:46;6.00;99.90
17599;DHT22;8918;52.092;5.232;2023-12-14T01:01:11;6.00;99.90
17599;DHT22;8918;52.092;5.232;2023-12-14T01:03:37;6.00;99.90
17599;DHT22;8918;52.092;5.232;2023-12-14T01:06:02;5.90;99.90
17599;DHT22;8918;52.092;5.232;2023-12-14T01:08:28;5.90;99.90
17599;DHT22;8918;52.092;5.232;2023-12-14T01:10:54;5.90;99.90
17599;DHT22;8918;52.092;5.232;2023-12-14T01:13:19;5.90;99.90
17599;DHT22;8918;52.092;5.232;2023-12-14T01:15:45;5.90;99.90
17599;DHT22;8918;52.092;5.232;2023-12-14T01:18:10;5.90;99.90
17599;DHT22;8918;52.092;5.232;2023-12-14T01:20:36;5.90;99.90
17599;DHT22;8918;52.092;5.232;2023-12-14T01:23:01;5.90;99.90
17599;DHT22;8918;52.092;5.232;2023-12-14T01:25:30;5.90;99.90
17599;DHT22;8918;52.092;5.232;2023-12-14T01:27:59;5.90;99.90
17599;DHT22;8918;52.092;5.232;2023-12-14T01:30:25;5.80;99.90
17599;DHT22;8918;52.092;5.232;2023-12-14T01:32:51;5.80;99.90
17599;DHT22;8918;52.092;5.232;2023-12-14T01:35:16;5.80;99.90
17599;DHT22;8918;52.092;5.232;2023-12-14T01:37:42;5.80;99.90
17599;DHT22;8918;52.092;5.232;2023-12-14T01:40:08;5.80;99.90
17599;DHT22;8918;52.092;5.232;2023-12-14T01:42:34;5.80;99.90
17599;DHT22;8918;52.092;5.232;2023-12-14T01:44:59;5.80;99.90
17599;DHT22;8918;52.092;5.232;2023-12-14T01:47:25;5.80;99.90
17599;DHT22;8918;52.092;5.232;2023-12-14T01:49:50;5.80;99.90
17599;DHT22;8918;52.092;5.232;2023-12-14T01:52:16;5.90;99.90
17599;DHT22;8918;52.092;5.232;2023-12-14T01:54:42;5.80;99.90
17599;DHT22;8918;52.092;5.232;2023-12-14T01:57:07;5.80;99.90
17599;DHT22;8918;52.092;5.232;2023-12-14T01:59:33;5.80;99.90
17599;DHT22;8918;52.092;5.232;2023-12-14T02:01:59;5.80;99.90
17599;DHT22;8918;52.092;5.232;2023-12-14T02:04:26;5.80;99.90
17599;DHT22;8918;52.092;5.232;2023-12-14T02:06:54;5.80;99.90
17599;DHT22;8918;52.092;5.232;2023-12-14T02:09:19;5.80;99.90
17599;DHT22;8918;52.092;5.232;2023-12-14T02:11:45;5.80;99.90
17599;DHT22;8918;52.092;5.232;2023-12-14T02:14:12;5.80;99.90
17599;DHT22;8918;52.092;5.232;2023-12-14T02:16:38;5.80;99.90
17599;DHT22;8918;52.092;5.232;2023-12-14T02:19:04;5.80;99.90
17599;DHT22;8918;52.092;5.232;2023-12-14T02:21:30;5.80;99.90
17599;DHT22;8918;52.092;5.232;2023-12-14T02:23:56;5.80;99.90
17599;DHT22;8918;52.092;5.232;2023-12-14T02:26:22;5.80;99.90
17599;DHT22;8918;52.092;5.232;2023-12-14T02:28:47;5.80;99.90
17599;DHT22;8918;52.092;5.232;2023-12-14T02:31:13;5.80;99.90
17599;DHT22;8918;52.092;5.232;2023-12-14T02:33:39;5.90;99.90
17599;DHT22;8918;52.092;5.232;2023-12-14T02:36:04;5.90;99.90
17599;DHT22;8918;52.092;5.232;2023-12-14T02:38:30;5.90;99.90
17599;DHT22;8918;52.092;5.232;2023-12-14T02:40:56;5.90;99.90
17599;DHT22;8918;52.092;5.232;2023-12-14T02:43:22;5.90;99.90
17599;DHT22;8918;52.092;5.232;2023-12-14T02:45:49;5.90;99.90
17599;DHT22;8918;52.092;5.232;2023-12-14T02:48:15;5.90;99.90
17599;DHT22;8918;52.092;5.232;2023-12-14T02:50:40;5.90;99.90
17599;DHT22;8918;52.092;5.232;2023-12-14T02:53:06;5.80;99.90
17599;DHT22;8918;52.092;5.232;2023-12-14T02:55:32;5.80;99.90
17599;DHT22;8918;52.092;5.232;2023-12-14T02:57:57;5.80;99.90
17599;DHT22;8918;52.092;5.232;2023-12-14T03:00:23;5.90;99.90
17599;DHT22;8918;52.092;5.232;2023-12-14T03:02:48;5.90;99.90
17599;DHT22;8918;52.092;5.232;2023-12-14T03:05:14;5.90;99.90
17599;DHT22;8918;52.092;5.232;2023-12-14T03:07:40;5.90;99.90
17599;DHT22;8918;52.092;5.232;2023-12-14T03:10:06;5.90;99.90
17599;DHT22;8918;52.092;5.232;2023-12-14T03:12:32;5.80;99.90
17599;DHT22;8918;52.092;5.232;2023-12-14T03:14:58;5.80;99.90
17599;DHT22;8918;52.092;5.232;2023-12-14T03:17:24;5.80;99.90
17599;DHT22;8918;52.092;5.232;2023-12-14T03:19:49;5.80;99.90
17599;DHT22;8918;52.092;5.232;2023-12-14T03:22:15;5.80;99.90
17599;DHT22;8918;52.092;5.232;2023-12-14T03:24:41;5.80;99.90
17599;DHT22;8918;52.092;5.232;2023-12-14T03:27:07;5.80;99.90
17599;DHT22;8918;52.092;5.232;2023-12-14T03:29:32;5.80;99.90
17599;DHT22;8918;52.092;5.232;2023-12-14T03:31:58;5.80;99.90
17599;DHT22;8918;52.092;5.232;2023-12-14T03:34:24;5.80;99.90
17599;DHT22;8918;52.092;5.232;2023-12-14T03:36:50;5.80;99.90
17599;DHT22;8918;52.092;5.232;2023-12-14T03:39:16;5.80;99.90
17599;DHT22;8918;52.092;5.232;2023-12-14T03:41:43;5.80;99.90
17599;DHT22;8918;52.092;5.232;2023-12-14T03:44:08;5.80;99.90
17599;DHT22;8918;52.092;5.232;2023-12-14T03:46:34;5.70;99.90
17599;DHT22;8918;52.092;5.232;2023-12-14T03:49:00;5.70;99.90
17599;DHT22;8918;52.092;5.232;2023-12-14T03:51:26;5.70;99.90
17599;DHT22;8918;52.092;5.232;2023-12-14T03:53:51;5.60;99.90
17599;DHT22;8918;52.092;5.232;2023-12-14T03:56:17;5.70;99.90
17599;DHT22;8918;52.092;5.232;2023-12-14T03:58:43;5.70;99.90
17599;DHT22;8918;52.092;5.232;2023-12-14T04:01:16;5.60;99.90
17599;DHT22;8918;52.092;5.232;2023-12-14T04:03:41;5.60;99.90
17599;DHT22;8918;52.092;5.232;2023-12-14T04:06:07;5.60;99.90
17599;DHT22;8918;52.092;5.232;2023-12-14T04:08:33;5.60;99.90
17599;DHT22;8918;52.092;5.232;2023-12-14T04:10:59;5.70;99.90
17599;DHT22;8918;52.092;5.232;2023-12-14T04:13:24;5.70;99.90
17599;DHT22;8918;52.092;5.232;2023-12-14T04:15:50;5.60;99.90
17599;DHT22;8918;52.092;5.232;2023-12-14T04:18:15;5.60;99.90
17599;DHT22;8918;52.092;5.232;2023-12-14T04:20:41;5.60;99.90
17599;DHT22;8918;52.092;5.232;2023-12-14T04:23:06;5.70;99.90
17599;DHT22;8918;52.092;5.232;2023-12-14T04:25:32;5.70;99.90
17599;DHT22;8918;52.092;5.232;2023-12-14T04:27:57;5.60;99.90
17599;DHT22;8918;52.092;5.232;2023-12-14T04:30:23;5.60;99.90
17599;DHT22;8918;52.092;5.232;2023-12-14T04:32:49;5.60;99.90
17599;DHT22;8918;52.092;5.232;2023-12-14T04:35:14;5.60;99.90
17599;DHT22;8918;52.092;5.232;2023-12-14T04:37:40;5.60;99.90
17599;DHT22;8918;52.092;5.232;2023-12-14T04:40:06;5.60;99.90
17599;DHT22;8918;52.092;5.232;2023-12-14T04:42:32;5.50;99.90
17599;DHT22;8918;52.092;5.232;2023-12-14T04:44:57;5.50;99.90
17599;DHT22;8918;52.092;5.232;2023-12-14T04:47:23;5.50;99.90
17599;DHT22;8918;52.092;5.232;2023-12-14T04:49:49;5.50;99.90
17599;DHT22;8918;52.092;5.232;2023-12-14T04:52:15;5.50;99.90
17599;DHT22;8918;52.092;5.232;2023-12-14T04:54:40;5.50;99.90
17599;DHT22;8918;52.092;5.232;2023-12-14T04:57:07;5.50;99.90
17599;DHT22;8918;52.092;5.232;2023-12-14T04:59:33;5.50;99.90
17599;DHT22;8918;52.092;5.232;2023-12-14T05:01:58;5.50;99.90
17599;DHT22;8918;52.092;5.232;2023-12-14T05:04:24;5.50;99.90
17599;DHT22;8918;52.092;5.232;2023-12-14T05:06:49;5.50;99.90
17599;DHT22;8918;52.092;5.232;2023-12-14T05:09:15;5.50;99.90
17599;DHT22;8918;52.092;5.232;2023-12-14T05:11:41;5.50;99.90
17599;DHT22;8918;52.092;5.232;2023-12-14T05:14:07;5.50;99.90
17599;DHT22;8918;52.092;5.232;2023-12-14T05:16:33;5.50;99.90
17599;DHT22;8918;52.092;5.232;2023-12-14T05:18:59;5.50;99.90
17599;DHT22;8918;52.092;5.232;2023-12-14T05:21:25;5.50;99.90
17599;DHT22;8918;52.092;5.232;2023-12-14T05:23:50;5.40;99.90
17599;DHT22;8918;52.092;5.232;2023-12-14T05:26:16;5.40;99.90
17599;DHT22;8918;52.092;5.232;2023-12-14T05:28:41;5.40;99.90
17599;DHT22;8918;52.092;5.232;2023-12-14T05:31:07;5.40;99.90
17599;DHT22;8918;52.092;5.232;2023-12-14T05:33:37;5.40;99.90
17599;DHT22;8918;52.092;5.232;2023-12-14T05:36:02;5.40;99.90
17599;DHT22;8918;52.092;5.232;2023-12-14T05:38:31;5.30;99.90
17599;DHT22;8918;52.092;5.232;2023-12-14T05:40:56;5.30;99.90
17599;DHT22;8918;52.092;5.232;2023-12-14T05:43:22;5.30;99.90
17599;DHT22;8918;52.092;5.232;2023-12-14T05:45:47;5.30;99.90
17599;DHT22;8918;52.092;5.232;2023-12-14T05:48:13;5.30;99.90
17599;DHT22;8918;52.092;5.232;2023-12-14T05:50:39;5.30;99.90
17599;DHT22;8918;52.092;5.232;2023-12-14T05:53:04;5.30;99.90
17599;DHT22;8918;52.092;5.232;2023-12-14T05:55:30;5.30;99.90
17599;DHT22;8918;52.092;5.232;2023-12-14T05:57:56;5.30;99.90
17599;DHT22;8918;52.092;5.232;2023-12-14T06:00:24;5.30;99.90
17599;DHT22;8918;52.092;5.232;2023-12-14T06:02:49;5.30;99.90
17599;DHT22;8918;52.092;5.232;2023-12-14T06:05:15;5.30;99.90
17599;DHT22;8918;52.092;5.232;2023-12-14T06:07:41;5.30;99.90
17599;DHT22;8918;52.092;5.232;2023-12-14T06:10:07;5.20;99.90
17599;DHT22;8918;52.092;5.232;2023-12-14T06:12:33;5.30;99.90
17599;DHT22;8918;52.092;5.232;2023-12-14T06:14:58;5.20;99.90
17599;DHT22;8918;52.092;5.232;2023-12-14T06:17:24;5.20;99.90
17599;DHT22;8918;52.092;5.232;2023-12-14T06:19:49;5.20;99.90
17599;DHT22;8918;52.092;5.232;2023-12-14T06:22:15;5.30;99.90
17599;DHT22;8918;52.092;5.232;2023-12-14T06:24:40;5.30;99.90
17599;DHT22;8918;52.092;5.232;2023-12-14T06:27:07;5.30;99.90
17599;DHT22;8918;52.092;5.232;2023-12-14T06:29:32;5.30;99.90
17599;DHT22;8918;52.092;5.232;2023-12-14T06:31:58;5.30;99.90
17599;DHT22;8918;52.092;5.232;2023-12-14T06:34:24;5.30;99.90
17599;DHT22;8918;52.092;5.232;2023-12-14T06:36:49;5.30;99.90
17599;DHT22;8918;52.092;5.232;2023-12-14T06:39:15;5.30;99.90
17599;DHT22;8918;52.092;5.232;2023-12-14T06:41:41;5.30;99.90
17599;DHT22;8918;52.092;5.232;2023-12-14T06:44:07;5.30;99.90
17599;DHT22;8918;52.092;5.232;2023-12-14T06:46:34;5.30;99.90
17599;DHT22;8918;52.092;5.232;2023-12-14T06:49:00;5.30;99.90
17599;DHT22;8918;52.092;5.232;2023-12-14T06:51:25;5.20;99.90
17599;DHT22;8918;52.092;5.232;2023-12-14T06:53:51;5.20;99.90
17599;DHT22;8918;52.092;5.232;2023-12-14T06:56:16;5.20;99.90
17599;DHT22;8918;52.092;5.232;2023-12-14T06:58:44;5.20;99.90
17599;DHT22;8918;52.092;5.232;2023-12-14T07:01:13;5.10;99.90
17599;DHT22;8918;52.092;5.232;2023-12-14T07:03:45;5.10;99.90
17599;DHT22;8918;52.092;5.232;2023-12-14T07:06:15;5.10;99.90
17599;DHT22;8918;52.092;5.232;2023-12-14T07:08:41;5.00;99.90
17599;DHT22;8918;52.092;5.232;2023-12-14T07:11:08;5.00;99.90
17599;DHT22;8918;52.092;5.232;2023-12-14T07:13:34;5.00;99.90
17599;DHT22;8918;52.092;5.232;2023-12-14T07:16:04;5.00;99.90
17599;DHT22;8918;52.092;5.232;2023-12-14T07:18:30;4.90;99.90
17599;DHT22;8918;52.092;5.232;2023-12-14T07:20:56;4.90;99.90
17599;DHT22;8918;52.092;5.232;2023-12-14T07:23:21;4.90;99.90
17599;DHT22;8918;52.092;5.232;2023-12-14T07:25:47;4.90;99.90
17599;DHT22;8918;52.092;5.232;2023-12-14T07:28:13;5.00;99.90
17599;DHT22;8918;52.092;5.232;2023-12-14T07:30:38;5.00;99.90
17599;DHT22;8918;52.092;5.232;2023-12-14T07:33:04;5.00;99.90
17599;DHT22;8918;52.092;5.232;2023-12-14T07:35:29;5.00;99.90
17599;DHT22;8918;52.092;5.232;2023-12-14T07:37:55;5.00;99.90
17599;DHT22;8918;52.092;5.232;2023-12-14T07:40:21;5.00;99.90
17599;DHT22;8918;52.092;5.232;2023-12-14T07:42:46;5.00;99.90
17599;DHT22;8918;52.092;5.232;2023-12-14T07:45:12;5.00;99.90
17599;DHT22;8918;52.092;5.232;2023-12-14T07:47:38;5.00;99.90
17599;DHT22;8918;52.092;5.232;2023-12-14T07:50:04;5.00;99.90
17599;DHT22;8918;52.092;5.232;2023-12-14T07:52:29;5.00;99.90
17599;DHT22;8918;52.092;5.232;2023-12-14T07:54:55;5.00;99.90
17599;DHT22;8918;52.092;5.232;2023-12-14T07:57:20;5.00;99.90
17599;DHT22;8918;52.092;5.232;2023-12-14T07:59:46;5.00;99.90
17599;DHT22;8918;52.092;5.232;2023-12-14T08:02:12;5.00;99.90
17599;DHT22;8918;52.092;5.232;2023-12-14T08:04:37;5.00;99.90
17599;DHT22;8918;52.092;5.232;2023-12-14T08:07:03;5.00;99.90
17599;DHT22;8918;52.092;5.232;2023-12-14T08:09:29;5.00;99.90
17599;DHT22;8918;52.092;5.232;2023-12-14T08:11:54;4.90;99.90
17599;DHT22;8918;52.092;5.232;2023-12-14T08:14:20;5.00;99.90
17599;DHT22;8918;52.092;5.232;2023-12-14T08:16:45;5.00;99.90
17599;DHT22;8918;52.092;5.232;2023-12-14T08:19:11;5.00;99.90
17599;DHT22;8918;52.092;5.232;2023-12-14T08:21:36;5.00;99.90
17599;DHT22;8918;52.092;5.232;2023-12-14T08:24:02;5.00;99.90
17599;DHT22;8918;52.092;5.232;2023-12-14T08:26:28;5.10;99.90
17599;DHT22;8918;52.092;5.232;2023-12-14T08:28:54;5.10;99.90
17599;DHT22;8918;52.092;5.232;2023-12-14T08:31:19;5.00;99.90
17599;DHT22;8918;52.092;5.232;2023-12-14T08:33:45;5.10;99.90
17599;DHT22;8918;52.092;5.232;2023-12-14T08:36:10;5.00;99.90
17599;DHT22;8918;52.092;5.232;2023-12-14T08:38:40;5.00;99.90
17599;DHT22;8918;52.092;5.232;2023-12-14T08:41:05;5.00;99.90
17599;DHT22;8918;52.092;5.232;2023-12-14T08:43:31;5.10;99.90
17599;DHT22;8918;52.092;5.232;2023-12-14T08:45:57;5.10;99.90
17599;DHT22;8918;52.092;5.232;2023-12-14T08:48:22;5.10;99.90
17599;DHT22;8918;52.092;5.232;2023-12-14T08:50:48;5.20;99.90
17599;DHT22;8918;52.092;5.232;2023-12-14T08:53:13;5.20;99.90
17599;DHT22;8918;52.092;5.232;2023-12-14T08:55:39;5.20;99.90
17599;DHT22;8918;52.092;5.232;2023-12-14T08:58:04;5.20;99.90
17599;DHT22;8918;52.092;5.232;2023-12-14T09:00:30;5.20;99.90
17599;DHT22;8918;52.092;5.232;2023-12-14T09:02:56;5.20;99.90
17599;DHT22;8918;52.092;5.232;2023-12-14T09:05:21;5.20;99.90
17599;DHT22;8918;52.092;5.232;2023-12-14T09:07:47;5.20;99.90
17599;DHT22;8918;52.092;5.232;2023-12-14T09:10:13;5.20;99.90
17599;DHT22;8918;52.092;5.232;2023-12-14T09:12:38;5.30;99.90
17599;DHT22;8918;52.092;5.232;2023-12-14T09:15:04;5.30;99.90
17599;DHT22;8918;52.092;5.232;2023-12-14T09:17:31;5.30;99.90
17599;DHT22;8918;52.092;5.232;2023-12-14T09:20:01;5.30;99.90
17599;DHT22;8918;52.092;5.232;2023-12-14T09:22:26;5.40;99.90
17599;DHT22;8918;52.092;5.232;2023-12-14T09:24:52;5.40;99.90
17599;DHT22;8918;52.092;5.232;2023-12-14T09:27:18;5.40;99.90
17599;DHT22;8918;52.092;5.232;2023-12-14T09:29:44;5.50;99.90
17599;DHT22;8918;52.092;5.232;2023-12-14T09:32:09;5.60;99.90
17599;DHT22;8918;52.092;5.232;2023-12-14T09:34:35;5.60;99.90
17599;DHT22;8918;52.092;5.232;2023-12-14T09:37:00;5.50;99.90
17599;DHT22;8918;52.092;5.232;2023-12-14T09:39:26;5.60;99.90
17599;DHT22;8918;52.092;5.232;2023-12-14T09:42:02;5.70;99.90
17599;DHT22;8918;52.092;5.232;2023-12-14T09:44:29;5.60;99.90
17599;DHT22;8918;52.092;5.232;2023-12-14T09:46:55;5.70;99.90
17599;DHT22;8918;52.092;5.232;2023-12-14T09:49:22;5.70;99.90
17599;DHT22;8918;52.092;5.232;2023-12-14T09:51:50;5.80;99.90
17599;DHT22;8918;52.092;5.232;2023-12-14T09:54:15;5.80;99.90
17599;DHT22;8918;52.092;5.232;2023-12-14T09:56:47;5.90;99.90
17599;DHT22;8918;52.092;5.232;2023-12-14T09:59:13;6.00;99.90
17599;DHT22;8918;52.092;5.232;2023-12-14T10:01:39;6.20;99.90
17599;DHT22;8918;52.092;5.232;2023-12-14T10:04:09;6.40;99.90
17599;DHT22;8918;52.092;5.232;2023-12-14T10:06:36;6.60;99.90
17599;DHT22;8918;52.092;5.232;2023-12-14T10:09:02;7.00;99.90
17599;DHT22;8918;52.092;5.232;2023-12-14T10:11:29;7.80;99.90
17599;DHT22;8918;52.092;5.232;2023-12-14T10:13:54;8.80;99.90
17599;DHT22;8918;52.092;5.232;2023-12-14T10:16:31;9.40;99.90
17599;DHT22;8918;52.092;5.232;2023-12-14T10:18:58;10.00;99.90
17599;DHT22;8918;52.092;5.232;2023-12-14T10:21:27;10.30;99.90
17599;DHT22;8918;52.092;5.232;2023-12-14T10:23:57;10.20;99.90
17599;DHT22;8918;52.092;5.232;2023-12-14T10:26:23;10.00;99.90
17599;DHT22;8918;52.092;5.232;2023-12-14T10:28:53;10.00;99.90
17599;DHT22;8918;52.092;5.232;2023-12-14T10:31:19;9.70;99.90
17599;DHT22;8918;52.092;5.232;2023-12-14T10:33:47;9.30;99.90
17599;DHT22;8918;52.092;5.232;2023-12-14T10:36:14;8.90;99.90
17599;DHT22;8918;52.092;5.232;2023-12-14T10:38:41;8.50;99.90
17599;DHT22;8918;52.092;5.232;2023-12-14T10:41:09;8.20;99.90
17599;DHT22;8918;52.092;5.232;2023-12-14T10:43:36;8.00;99.90
17599;DHT22;8918;52.092;5.232;2023-12-14T10:46:05;7.90;99.90
17599;DHT22;8918;52.092;5.232;2023-12-14T10:48:31;7.90;99.90
17599;DHT22;8918;52.092;5.232;2023-12-14T10:51:00;7.80;99.90
17599;DHT22;8918;52.092;5.232;2023-12-14T10:53:27;7.90;99.90
17599;DHT22;8918;52.092;5.232;2023-12-14T10:55:54;7.90;99.90
17599;DHT22;8918;52.092;5.232;2023-12-14T10:58:20;8.10;99.90
17599;DHT22;8918;52.092;5.232;2023-12-14T11:01:02;8.40;99.90
17599;DHT22;8918;52.092;5.232;2023-12-14T11:03:33;8.60;99.90
17599;DHT22;8918;52.092;5.232;2023-12-14T11:06:00;9.00;99.90
17599;DHT22;8918;52.092;5.232;2023-12-14T11:08:25;9.40;99.90
17599;DHT22;8918;52.092;5.232;2023-12-14T11:11:03;9.60;99.90
17599;DHT22;8918;52.092;5.232;2023-12-14T11:13:35;9.90;99.90
17599;DHT22;8918;52.092;5.232;2023-12-14T11:16:01;9.90;99.90
17599;DHT22;8918;52.092;5.232;2023-12-14T11:18:27;9.90;99.90
17599;DHT22;8918;52.092;5.232;2023-12-14T11:21:00;10.10;99.90
17599;DHT22;8918;52.092;5.232;2023-12-14T11:23:29;10.10;99.90
17599;DHT22;8918;52.092;5.232;2023-12-14T11:26:00;10.20;99.90
17599;DHT22;8918;52.092;5.232;2023-12-14T11:28:29;10.20;99.90
17599;DHT22;8918;52.092;5.232;2023-12-14T11:30:55;9.90;99.90
17599;DHT22;8918;52.092;5.232;2023-12-14T11:33:21;10.20;99.90
17599;DHT22;8918;52.092;5.232;2023-12-14T11:35:47;10.40;99.90
17599;DHT22;8918;52.092;5.232;2023-12-14T11:38:13;10.30;99.90
17599;DHT22;8918;52.092;5.232;2023-12-14T11:40:42;10.40;99.90
17599;DHT22;8918;52.092;5.232;2023-12-14T11:43:08;10.40;99.90
17599;DHT22;8918;52.092;5.232;2023-12-14T11:45:41;10.40;99.90
17599;DHT22;8918;52.092;5.232;2023-12-14T11:48:08;10.20;99.90
17599;DHT22;8918;52.092;5.232;2023-12-14T11:50:36;10.00;99.90
17599;DHT22;8918;52.092;5.232;2023-12-14T11:53:02;9.90;99.90
17599;DHT22;8918;52.092;5.232;2023-12-14T11:55:32;9.80;99.90
17599;DHT22;8918;52.092;5.232;2023-12-14T11:57:59;9.80;99.90
17599;DHT22;8918;52.092;5.232;2023-12-14T12:00:28;9.50;99.90
17599;DHT22;8918;52.092;5.232;2023-12-14T12:03:16;9.20;99.90
17599;DHT22;8918;52.092;5.232;2023-12-14T12:05:43;9.10;99.90
17599;DHT22;8918;52.092;5.232;2023-12-14T12:08:10;9.00;99.90
17599;DHT22;8918;52.092;5.232;2023-12-14T12:10:37;8.60;99.90
17599;DHT22;8918;52.092;5.232;2023-12-14T12:13:04;8.40;99.90
17599;DHT22;8918;52.092;5.232;2023-12-14T12:15:34;8.20;99.90
17599;DHT22;8918;52.092;5.232;2023-12-14T12:18:07;8.00;99.90
17599;DHT22;8918;52.092;5.232;2023-12-14T12:20:34;7.90;99.90
17599;DHT22;8918;52.092;5.232;2023-12-14T12:23:00;7.70;99.90
17599;DHT22;8918;52.092;5.232;2023-12-14T12:25:27;7.70;99.90
17599;DHT22;8918;52.092;5.232;2023-12-14T12:27:54;7.60;99.90
17599;DHT22;8918;52.092;5.232;2023-12-14T12:30:21;7.60;99.90
17599;DHT22;8918;52.092;5.232;2023-12-14T12:32:47;7.50;99.90
17599;DHT22;8918;52.092;5.232;2023-12-14T12:35:13;7.50;99.90
17599;DHT22;8918;52.092;5.232;2023-12-14T12:37:39;7.50;99.90
17599;DHT22;8918;52.092;5.232;2023-12-14T12:40:05;7.60;99.90
17599;DHT22;8918;52.092;5.232;2023-12-14T12:42:32;7.50;99.90
17599;DHT22;8918;52.092;5.232;2023-12-14T12:44:57;7.40;99.90
17599;DHT22;8918;52.092;5.232;2023-12-14T12:47:23;7.40;99.90
17599;DHT22;8918;52.092;5.232;2023-12-14T12:49:49;7.40;99.90
17599;DHT22;8918;52.092;5.232;2023-12-14T12:52:15;7.40;99.90
17599;DHT22;8918;52.092;5.232;2023-12-14T12:54:40;7.40;99.90
17599;DHT22;8918;52.092;5.232;2023-12-14T12:57:06;7.40;99.90
17599;DHT22;8918;52.092;5.232;2023-12-14T12:59:31;7.40;99.90
17599;DHT22;8918;52.092;5.232;2023-12-14T13:01:57;7.50;99.90
17599;DHT22;8918;52.092;5.232;2023-12-14T13:04:23;7.50;99.90
17599;DHT22;8918;52.092;5.232;2023-12-14T13:06:50;7.40;99.90
17599;DHT22;8918;52.092;5.232;2023-12-14T13:09:16;7.40;99.90
17599;DHT22;8918;52.092;5.232;2023-12-14T13:11:45;7.40;99.90
17599;DHT22;8918;52.092;5.232;2023-12-14T13:14:11;7.40;99.90
17599;DHT22;8918;52.092;5.232;2023-12-14T13:16:38;7.40;99.90
17599;DHT22;8918;52.092;5.232;2023-12-14T13:19:04;7.40;99.90
17599;DHT22;8918;52.092;5.232;2023-12-14T13:21:34;7.60;99.90
17599;DHT22;8918;52.092;5.232;2023-12-14T13:24:01;7.50;99.90
17599;DHT22;8918;52.092;5.232;2023-12-14T13:26:27;7.50;99.90
17599;DHT22;8918;52.092;5.232;2023-12-14T13:28:52;7.50;99.90
17599;DHT22;8918;52.092;5.232;2023-12-14T13:31:18;7.50;99.90
17599;DHT22;8918;52.092;5.232;2023-12-14T13:33:46;7.60;99.90
17599;DHT22;8918;52.092;5.232;2023-12-14T13:36:12;7.50;99.90
17599;DHT22;8918;52.092;5.232;2023-12-14T13:38:38;7.60;99.90
17599;DHT22;8918;52.092;5.232;2023-12-14T13:41:04;7.80;99.90
17599;DHT22;8918;52.092;5.232;2023-12-14T13:43:30;7.70;99.90
17599;DHT22;8918;52.092;5.232;2023-12-14T13:45:55;7.70;99.90
17599;DHT22;8918;52.092;5.232;2023-12-14T13:48:27;7.60;99.90
17599;DHT22;8918;52.092;5.232;2023-12-14T13:50:54;7.40;99.90
17599;DHT22;8918;52.092;5.232;2023-12-14T13:53:20;7.30;99.90
17599;DHT22;8918;52.092;5.232;2023-12-14T13:55:46;7.20;99.90
17599;DHT22;8918;52.092;5.232;2023-12-14T13:58:12;7.20;99.90
17599;DHT22;8918;52.092;5.232;2023-12-14T14:00:38;7.20;99.90
17599;DHT22;8918;52.092;5.232;2023-12-14T14:03:04;7.20;99.90
17599;DHT22;8918;52.092;5.232;2023-12-14T14:05:31;7.10;99.90
17599;DHT22;8918;52.092;5.232;2023-12-14T14:07:57;7.20;99.90
17599;DHT22;8918;52.092;5.232;2023-12-14T14:10:23;7.20;99.90
17599;DHT22;8918;52.092;5.232;2023-12-14T14:12:48;7.10;99.90
17599;DHT22;8918;52.092;5.232;2023-12-14T14:15:14;6.90;99.90
17599;DHT22;8918;52.092;5.232;2023-12-14T14:17:40;6.90;99.90
17599;DHT22;8918;52.092;5.232;2023-12-14T14:20:06;6.90;99.90
17599;DHT22;8918;52.092;5.232;2023-12-14T14:22:32;7.00;99.90
17599;DHT22;8918;52.092;5.232;2023-12-14T14:24:59;6.90;99.90
17599;DHT22;8918;52.092;5.232;2023-12-14T14:27:24;6.90;99.90
17599;DHT22;8918;52.092;5.232;2023-12-14T14:29:50;7.00;99.90
17599;DHT22;8918;52.092;5.232;2023-12-14T14:32:19;7.00;99.90
17599;DHT22;8918;52.092;5.232;2023-12-14T14:34:44;7.00;99.90
17599;DHT22;8918;52.092;5.232;2023-12-14T14:37:10;7.00;99.90
17599;DHT22;8918;52.092;5.232;2023-12-14T14:39:36;6.90;99.90
17599;DHT22;8918;52.092;5.232;2023-12-14T14:42:05;6.90;99.90
17599;DHT22;8918;52.092;5.232;2023-12-14T14:44:30;6.80;99.90
17599;DHT22;8918;52.092;5.232;2023-12-14T14:46:59;6.80;99.90
17599;DHT22;8918;52.092;5.232;2023-12-14T14:49:25;6.80;99.90
17599;DHT22;8918;52.092;5.232;2023-12-14T14:51:50;6.80;99.90
17599;DHT22;8918;52.092;5.232;2023-12-14T14:54:16;6.80;99.90
17599;DHT22;8918;52.092;5.232;2023-12-14T14:56:42;6.70;99.90
17599;DHT22;8918;52.092;5.232;2023-12-14T14:59:09;6.80;99.90
17599;DHT22;8918;52.092;5.232;2023-12-14T15:01:37;6.80;99.90
17599;DHT22;8918;52.092;5.232;2023-12-14T15:04:02;6.70;99.90
17599;DHT22;8918;52.092;5.232;2023-12-14T15:06:28;6.70;99.90
17599;DHT22;8918;52.092;5.232;2023-12-14T15:08:54;6.70;99.90
17599;DHT22;8918;52.092;5.232;2023-12-14T15:11:19;6.70;99.90
17599;DHT22;8918;52.092;5.232;2023-12-14T15:13:45;6.80;99.90
17599;DHT22;8918;52.092;5.232;2023-12-14T15:16:10;6.70;99.90
17599;DHT22;8918;52.092;5.232;2023-12-14T15:18:38;6.70;99.90
17599;DHT22;8918;52.092;5.232;2023-12-14T15:21:09;6.70;99.90
17599;DHT22;8918;52.092;5.232;2023-12-14T15:23:35;6.70;99.90
17599;DHT22;8918;52.092;5.232;2023-12-14T15:26:02;6.70;99.90
17599;DHT22;8918;52.092;5.232;2023-12-14T15:28:27;6.70;99.90
17599;DHT22;8918;52.092;5.232;2023-12-14T15:30:53;6.70;99.90
17599;DHT22;8918;52.092;5.232;2023-12-14T15:33:18;6.70;99.90
17599;DHT22;8918;52.092;5.232;2023-12-14T15:35:44;6.60;99.90
17599;DHT22;8918;52.092;5.232;2023-12-14T15:38:10;6.50;99.90
17599;DHT22;8918;52.092;5.232;2023-12-14T15:40:36;6.40;99.90
17599;DHT22;8918;52.092;5.232;2023-12-14T15:43:04;6.40;99.90
17599;DHT22;8918;52.092;5.232;2023-12-14T15:45:29;6.30;99.90
17599;DHT22;8918;52.092;5.232;2023-12-14T15:48:01;6.20;99.90
17599;DHT22;8918;52.092;5.232;2023-12-14T15:50:28;6.20;99.90
17599;DHT22;8918;52.092;5.232;2023-12-14T15:52:53;6.20;99.90
17599;DHT22;8918;52.092;5.232;2023-12-14T15:55:19;6.20;99.90